sensor_id;sensor_type;location;lat;lon;timestamp;temperature;humidity
32334;DHT22;18810;53.040;8.850;2022-12-07T00:03:34;4.40;99.90
32334;DHT22;18810;53.040;8.850;2022-12-07T00:06:01;4.40;99.90
32334;DHT22;18810;53.040;8.850;2022-12-07T00:08:28;4.30;99.90
32334;DHT22;18810;53.040;8.850;2022-12-07T00:10:59;4.20;99.90
32334;DHT22;18810;53.040;8.850;2022-12-07T00:13:25;4.10;99.90
32334;DHT22;18810;53.040;8.850;2022-12-07T00:15:51;4.10;99.90
32334;DHT22;18810;53.040;8.850;2022-12-07T00:18:17;4.20;99.90
32334;DHT22;18810;53.040;8.850;2022-12-07T00:20:42;4.10;99.90
32334;DHT22;18810;53.040;8.850;2022-12-07T00:23:08;4.00;99.90
32334;DHT22;18810;53.040;8.850;2022-12-07T00:25:34;4.00;99.90
32334;DHT22;18810;53.040;8.850;2022-12-07T00:27:59;3.90;99.90
32334;DHT22;18810;53.040;8.850;2022-12-07T00:30:25;3.90;99.90
32334;DHT22;18810;53.040;8.850;2022-12-07T00:32:51;3.80;99.90
32334;DHT22;18810;53.040;8.850;2022-12-07T00:35:17;3.90;99.90
32334;DHT22;18810;53.040;8.850;2022-12-07T00:37:42;3.80;99.90
32334;DHT22;18810;53.040;8.850;2022-12-07T00:40:08;3.80;99.90
32334;DHT22;18810;53.040;8.850;2022-12-07T00:42:34;3.80;99.90
32334;DHT22;18810;53.040;8.850;2022-12-07T00:45:00;3.80;99.90
32334;DHT22;18810;53.040;8.850;2022-12-07T00:47:25;3.80;99.90
32334;DHT22;18810;53.040;8.850;2022-12-07T00:49:51;3.80;99.90
32334;DHT22;18810;53.040;8.850;2022-12-07T00:52:17;3.80;99.90
32334;DHT22;18810;53.040;8.850;2022-12-07T00:54:46;3.80;99.90
32334;DHT22;18810;53.040;8.850;2022-12-07T00:57:14;3.80;99.90
32334;DHT22;18810;53.040;8.850;2022-12-07T00:59:40;3.80;99.90
32334;DHT22;18810;53.040;8.850;2022-12-07T01:02:06;3.80;99.90
32334;DHT22;18810;53.040;8.850;2022-12-07T01:04:34;3.90;99.90
32334;DHT22;18810;53.040;8.850;2022-12-07T01:06:59;3.80;99.90
32334;DHT22;18810;53.040;8.850;2022-12-07T01:09:25;3.80;99.90
32334;DHT22;18810;53.040;8.850;2022-12-07T01:11:51;3.80;99.90
32334;DHT22;18810;53.040;8.850;2022-12-07T01:14:16;3.70;99.90
32334;DHT22;18810;53.040;8.850;2022-12-07T01:16:42;3.80;99.90
32334;DHT22;18810;53.040;8.850;2022-12-07T01:19:08;3.80;99.90
32334;DHT22;18810;53.040;8.850;2022-12-07T01:21:34;3.80;99.90
32334;DHT22;18810;53.040;8.850;2022-12-07T01:24:02;3.70;99.90
32334;DHT22;18810;53.040;8.850;2022-12-07T01:26:28;3.70;99.90
32334;DHT22;18810;53.040;8.850;2022-12-07T01:28:54;3.60;99.90
32334;DHT22;18810;53.040;8.850;2022-12-07T01:31:22;3.70;99.90
32334;DHT22;18810;53.040;8.850;2022-12-07T01:33:51;3.80;99.90
32334;DHT22;18810;53.040;8.850;2022-12-07T01:36:44;3.70;99.90
32334;DHT22;18810;53.040;8.850;2022-12-07T01:39:10;3.60;99.90
32334;DHT22;18810;53.040;8.850;2022-12-07T01:41:38;3.60;99.90
32334;DHT22;18810;53.040;8.850;2022-12-07T01:46:38;3.60;99.90
32334;DHT22;18810;53.040;8.850;2022-12-07T01:49:07;3.50;99.90
32334;DHT22;18810;53.040;8.850;2022-12-07T01:51:37;3.50;99.90
32334;DHT22;18810;53.040;8.850;2022-12-07T01:54:06;3.60;99.90
32334;DHT22;18810;53.040;8.850;2022-12-07T01:56:32;3.50;99.90
32334;DHT22;18810;53.040;8.850;2022-12-07T01:59:00;3.50;99.90
32334;DHT22;18810;53.040;8.850;2022-12-07T02:01:26;3.50;99.90
32334;DHT22;18810;53.040;8.850;2022-12-07T02:03:52;3.50;99.90
32334;DHT22;18810;53.040;8.850;2022-12-07T02:06:22;3.50;99.90
32334;DHT22;18810;53.040;8.850;2022-12-07T02:08:49;3.40;99.90
32334;DHT22;18810;53.040;8.850;2022-12-07T02:11:15;3.40;99.90
32334;DHT22;18810;53.040;8.850;2022-12-07T02:13:42;3.50;99.90
32334;DHT22;18810;53.040;8.850;2022-12-07T02:30:21;3.30;99.90
32334;DHT22;18810;53.040;8.850;2022-12-07T02:33:20;3.30;99.90
32334;DHT22;18810;53.040;8.850;2022-12-07T02:41:04;3.20;99.90
32334;DHT22;18810;53.040;8.850;2022-12-07T02:44:00;3.20;99.90
32334;DHT22;18810;53.040;8.850;2022-12-07T02:46:31;3.20;99.90
32334;DHT22;18810;53.040;8.850;2022-12-07T02:48:58;3.20;99.90
32334;DHT22;18810;53.040;8.850;2022-12-07T02:51:30;3.20;99.90
32334;DHT22;18810;53.040;8.850;2022-12-07T02:53:56;3.20;99.90
32334;DHT22;18810;53.040;8.850;2022-12-07T02:56:30;3.20;99.90
32334;DHT22;18810;53.040;8.850;2022-12-07T03:05:15;3.40;99.90
32334;DHT22;18810;53.040;8.850;2022-12-07T03:13:31;3.40;99.90
32334;DHT22;18810;53.040;8.850;2022-12-07T03:16:18;3.40;99.90
32334;DHT22;18810;53.040;8.850;2022-12-07T03:18:53;3.40;99.90
32334;DHT22;18810;53.040;8.850;2022-12-07T03:21:25;3.40;99.90
32334;DHT22;18810;53.040;8.850;2022-12-07T03:23:55;3.40;99.90
32334;DHT22;18810;53.040;8.850;2022-12-07T03:26:27;3.40;99.90
32334;DHT22;18810;53.040;8.850;2022-12-07T03:28:58;3.40;99.90
32334;DHT22;18810;53.040;8.850;2022-12-07T03:31:32;3.40;99.90
32334;DHT22;18810;53.040;8.850;2022-12-07T03:34:50;3.40;99.90
32334;DHT22;18810;53.040;8.850;2022-12-07T03:42:04;3.60;99.90
32334;DHT22;18810;53.040;8.850;2022-12-07T03:44:31;3.70;99.90
32334;DHT22;18810;53.040;8.850;2022-12-07T03:54:55;3.60;99.90
32334;DHT22;18810;53.040;8.850;2022-12-07T03:57:24;3.70;99.90
32334;DHT22;18810;53.040;8.850;2022-12-07T03:59:51;3.70;99.90
32334;DHT22;18810;53.040;8.850;2022-12-07T04:02:17;3.70;99.90
32334;DHT22;18810;53.040;8.850;2022-12-07T04:04:43;3.60;99.90
32334;DHT22;18810;53.040;8.850;2022-12-07T04:07:09;3.70;99.90
32334;DHT22;18810;53.040;8.850;2022-12-07T04:09:36;3.60;99.90
32334;DHT22;18810;53.040;8.850;2022-12-07T04:12:01;3.70;99.90
32334;DHT22;18810;53.040;8.850;2022-12-07T04:14:27;3.60;99.90
32334;DHT22;18810;53.040;8.850;2022-12-07T04:16:56;3.60;99.90
32334;DHT22;18810;53.040;8.850;2022-12-07T04:19:30;3.60;99.90
32334;DHT22;18810;53.040;8.850;2022-12-07T04:21:57;3.60;99.90
32334;DHT22;18810;53.040;8.850;2022-12-07T04:24:24;3.60;99.90
32334;DHT22;18810;53.040;8.850;2022-12-07T04:26:50;3.60;99.90
32334;DHT22;18810;53.040;8.850;2022-12-07T04:29:16;3.60;99.90
32334;DHT22;18810;53.040;8.850;2022-12-07T04:31:42;3.50;99.90
32334;DHT22;18810;53.040;8.850;2022-12-07T04:34:08;3.50;99.90
32334;DHT22;18810;53.040;8.850;2022-12-07T04:36:34;3.50;99.90
32334;DHT22;18810;53.040;8.850;2022-12-07T04:39:00;3.50;99.90
32334;DHT22;18810;53.040;8.850;2022-12-07T04:41:27;3.50;99.90
32334;DHT22;18810;53.040;8.850;2022-12-07T04:43:57;3.50;99.90
32334;DHT22;18810;53.040;8.850;2022-12-07T04:46:24;3.50;99.90
32334;DHT22;18810;53.040;8.850;2022-12-07T04:48:51;3.40;99.90
32334;DHT22;18810;53.040;8.850;2022-12-07T04:51:21;3.40;99.90
32334;DHT22;18810;53.040;8.850;2022-12-07T04:53:47;3.40;99.90
32334;DHT22;18810;53.040;8.850;2022-12-07T04:56:14;3.50;99.90
32334;DHT22;18810;53.040;8.850;2022-12-07T04:58:41;3.50;99.90
32334;DHT22;18810;53.040;8.850;2022-12-07T05:01:06;3.50;99.90
32334;DHT22;18810;53.040;8.850;2022-12-07T05:03:32;3.40;99.90
32334;DHT22;18810;53.040;8.850;2022-12-07T05:05:58;3.40;99.90
32334;DHT22;18810;53.040;8.850;2022-12-07T05:08:24;3.50;99.90
32334;DHT22;18810;53.040;8.850;2022-12-07T05:10:50;3.40;99.90
32334;DHT22;18810;53.040;8.850;2022-12-07T05:13:15;3.50;99.90
32334;DHT22;18810;53.040;8.850;2022-12-07T05:15:41;3.50;99.90
32334;DHT22;18810;53.040;8.850;2022-12-07T05:18:10;3.40;99.90
32334;DHT22;18810;53.040;8.850;2022-12-07T05:20:38;3.40;99.90
32334;DHT22;18810;53.040;8.850;2022-12-07T05:23:04;3.30;99.90
32334;DHT22;18810;53.040;8.850;2022-12-07T05:25:30;3.30;99.90
32334;DHT22;18810;53.040;8.850;2022-12-07T05:27:56;3.30;99.90
32334;DHT22;18810;53.040;8.850;2022-12-07T05:30:23;3.30;99.90
32334;DHT22;18810;53.040;8.850;2022-12-07T05:32:49;3.20;99.90
32334;DHT22;18810;53.040;8.850;2022-12-07T05:35:15;3.10;99.90
32334;DHT22;18810;53.040;8.850;2022-12-07T05:37:40;3.10;99.90
32334;DHT22;18810;53.040;8.850;2022-12-07T05:40:06;3.00;99.90
32334;DHT22;18810;53.040;8.850;2022-12-07T05:42:32;3.00;99.90
32334;DHT22;18810;53.040;8.850;2022-12-07T05:44:58;3.00;99.90
32334;DHT22;18810;53.040;8.850;2022-12-07T05:47:24;3.00;99.90
32334;DHT22;18810;53.040;8.850;2022-12-07T05:49:49;3.00;99.90
32334;DHT22;18810;53.040;8.850;2022-12-07T05:52:15;3.00;99.90
32334;DHT22;18810;53.040;8.850;2022-12-07T05:54:41;2.90;99.90
32334;DHT22;18810;53.040;8.850;2022-12-07T05:57:07;3.00;99.90
32334;DHT22;18810;53.040;8.850;2022-12-07T05:59:32;3.00;99.90
32334;DHT22;18810;53.040;8.850;2022-12-07T06:02:01;3.00;99.90
32334;DHT22;18810;53.040;8.850;2022-12-07T06:04:30;3.00;99.90
32334;DHT22;18810;53.040;8.850;2022-12-07T06:06:56;3.00;99.90
32334;DHT22;18810;53.040;8.850;2022-12-07T06:09:25;3.00;99.90
32334;DHT22;18810;53.040;8.850;2022-12-07T06:11:51;3.00;99.90
32334;DHT22;18810;53.040;8.850;2022-12-07T06:14:36;3.00;99.90
32334;DHT22;18810;53.040;8.850;2022-12-07T06:17:01;3.00;99.90
32334;DHT22;18810;53.040;8.850;2022-12-07T06:19:27;3.00;99.90
32334;DHT22;18810;53.040;8.850;2022-12-07T06:21:53;3.10;99.90
32334;DHT22;18810;53.040;8.850;2022-12-07T06:24:19;3.10;99.90
32334;DHT22;18810;53.040;8.850;2022-12-07T06:26:45;3.10;99.90
32334;DHT22;18810;53.040;8.850;2022-12-07T06:29:12;3.10;99.90
32334;DHT22;18810;53.040;8.850;2022-12-07T06:31:38;3.20;99.90
32334;DHT22;18810;53.040;8.850;2022-12-07T06:34:09;3.20;99.90
32334;DHT22;18810;53.040;8.850;2022-12-07T06:36:35;3.20;99.90
32334;DHT22;18810;53.040;8.850;2022-12-07T06:39:02;3.30;99.90
32334;DHT22;18810;53.040;8.850;2022-12-07T06:41:27;3.30;99.90
32334;DHT22;18810;53.040;8.850;2022-12-07T06:43:53;3.40;99.90
32334;DHT22;18810;53.040;8.850;2022-12-07T06:46:19;3.30;99.90
32334;DHT22;18810;53.040;8.850;2022-12-07T06:48:45;3.30;99.90
32334;DHT22;18810;53.040;8.850;2022-12-07T06:51:11;3.40;99.90
32334;DHT22;18810;53.040;8.850;2022-12-07T06:53:37;3.50;99.90
32334;DHT22;18810;53.040;8.850;2022-12-07T06:56:03;3.50;99.90
32334;DHT22;18810;53.040;8.850;2022-12-07T06:58:29;3.40;99.90
32334;DHT22;18810;53.040;8.850;2022-12-07T07:00:55;3.40;99.90
32334;DHT22;18810;53.040;8.850;2022-12-07T07:03:21;3.30;99.90
32334;DHT22;18810;53.040;8.850;2022-12-07T07:05:47;3.30;99.90
32334;DHT22;18810;53.040;8.850;2022-12-07T07:08:13;3.40;99.90
32334;DHT22;18810;53.040;8.850;2022-12-07T07:10:39;3.30;99.90
32334;DHT22;18810;53.040;8.850;2022-12-07T07:13:05;3.10;99.90
32334;DHT22;18810;53.040;8.850;2022-12-07T07:15:32;3.10;99.90
32334;DHT22;18810;53.040;8.850;2022-12-07T07:17:58;3.20;99.90
32334;DHT22;18810;53.040;8.850;2022-12-07T07:20:24;3.20;99.90
32334;DHT22;18810;53.040;8.850;2022-12-07T07:22:49;3.30;99.90
32334;DHT22;18810;53.040;8.850;2022-12-07T07:25:16;3.20;99.90
32334;DHT22;18810;53.040;8.850;2022-12-07T07:27:42;3.20;99.90
32334;DHT22;18810;53.040;8.850;2022-12-07T07:30:08;3.20;99.90
32334;DHT22;18810;53.040;8.850;2022-12-07T07:32:34;3.30;99.90
32334;DHT22;18810;53.040;8.850;2022-12-07T07:35:00;3.20;99.90
32334;DHT22;18810;53.040;8.850;2022-12-07T07:37:25;3.20;99.90
32334;DHT22;18810;53.040;8.850;2022-12-07T07:39:54;3.20;99.90
32334;DHT22;18810;53.040;8.850;2022-12-07T07:42:20;3.20;99.90
32334;DHT22;18810;53.040;8.850;2022-12-07T07:44:47;3.10;99.90
32334;DHT22;18810;53.040;8.850;2022-12-07T07:47:13;3.10;99.90
32334;DHT22;18810;53.040;8.850;2022-12-07T07:49:38;3.10;99.90
32334;DHT22;18810;53.040;8.850;2022-12-07T07:52:05;3.00;99.90
32334;DHT22;18810;53.040;8.850;2022-12-07T07:54:31;3.20;99.90
32334;DHT22;18810;53.040;8.850;2022-12-07T07:56:57;3.20;99.90
32334;DHT22;18810;53.040;8.850;2022-12-07T07:59:23;3.30;99.90
32334;DHT22;18810;53.040;8.850;2022-12-07T08:01:50;3.30;99.90
32334;DHT22;18810;53.040;8.850;2022-12-07T08:04:15;3.20;99.90
32334;DHT22;18810;53.040;8.850;2022-12-07T08:06:41;3.20;99.90
32334;DHT22;18810;53.040;8.850;2022-12-07T08:09:08;3.30;99.90
32334;DHT22;18810;53.040;8.850;2022-12-07T08:11:34;3.20;99.90
32334;DHT22;18810;53.040;8.850;2022-12-07T08:13:59;3.30;99.90
32334;DHT22;18810;53.040;8.850;2022-12-07T08:16:25;3.30;99.90
32334;DHT22;18810;53.040;8.850;2022-12-07T08:18:51;3.30;99.90
32334;DHT22;18810;53.040;8.850;2022-12-07T08:21:17;3.30;99.90
32334;DHT22;18810;53.040;8.850;2022-12-07T08:23:43;3.40;99.90
32334;DHT22;18810;53.040;8.850;2022-12-07T08:26:10;3.40;99.90
32334;DHT22;18810;53.040;8.850;2022-12-07T08:28:37;3.40;99.90
32334;DHT22;18810;53.040;8.850;2022-12-07T08:31:10;3.40;99.90
32334;DHT22;18810;53.040;8.850;2022-12-07T08:33:36;3.40;99.90
32334;DHT22;18810;53.040;8.850;2022-12-07T08:36:04;3.40;99.90
32334;DHT22;18810;53.040;8.850;2022-12-07T08:38:30;3.50;99.90
32334;DHT22;18810;53.040;8.850;2022-12-07T08:40:57;3.60;99.90
32334;DHT22;18810;53.040;8.850;2022-12-07T08:43:23;3.60;99.90
32334;DHT22;18810;53.040;8.850;2022-12-07T08:48:46;3.60;99.90
32334;DHT22;18810;53.040;8.850;2022-12-07T08:51:14;3.50;99.90
32334;DHT22;18810;53.040;8.850;2022-12-07T08:53:40;3.50;99.90
32334;DHT22;18810;53.040;8.850;2022-12-07T08:56:07;3.60;99.90
32334;DHT22;18810;53.040;8.850;2022-12-07T08:58:34;3.60;99.90
32334;DHT22;18810;53.040;8.850;2022-12-07T09:01:00;3.60;99.90
32334;DHT22;18810;53.040;8.850;2022-12-07T09:03:26;3.70;99.90
32334;DHT22;18810;53.040;8.850;2022-12-07T09:05:52;3.70;99.90
32334;DHT22;18810;53.040;8.850;2022-12-07T09:08:19;3.70;99.90
32334;DHT22;18810;53.040;8.850;2022-12-07T09:10:46;3.70;99.90
32334;DHT22;18810;53.040;8.850;2022-12-07T09:13:11;3.80;99.90
32334;DHT22;18810;53.040;8.850;2022-12-07T09:15:37;3.80;99.90
32334;DHT22;18810;53.040;8.850;2022-12-07T09:18:03;3.90;99.90
32334;DHT22;18810;53.040;8.850;2022-12-07T09:20:29;3.80;99.90
32334;DHT22;18810;53.040;8.850;2022-12-07T09:22:54;4.00;99.90
32334;DHT22;18810;53.040;8.850;2022-12-07T09:25:20;3.90;99.90
32334;DHT22;18810;53.040;8.850;2022-12-07T09:27:46;3.90;99.90
32334;DHT22;18810;53.040;8.850;2022-12-07T09:30:12;4.00;99.90
32334;DHT22;18810;53.040;8.850;2022-12-07T09:32:37;3.90;99.90
32334;DHT22;18810;53.040;8.850;2022-12-07T09:35:03;4.10;99.90
32334;DHT22;18810;53.040;8.850;2022-12-07T09:37:29;4.20;99.90
32334;DHT22;18810;53.040;8.850;2022-12-07T09:39:57;4.20;99.90
32334;DHT22;18810;53.040;8.850;2022-12-07T09:42:37;4.10;99.90
32334;DHT22;18810;53.040;8.850;2022-12-07T09:45:07;4.20;99.90
32334;DHT22;18810;53.040;8.850;2022-12-07T09:47:37;4.40;99.90
32334;DHT22;18810;53.040;8.850;2022-12-07T09:50:19;4.70;99.90
32334;DHT22;18810;53.040;8.850;2022-12-07T09:52:47;5.00;99.90
32334;DHT22;18810;53.040;8.850;2022-12-07T09:55:18;5.30;99.90
32334;DHT22;18810;53.040;8.850;2022-12-07T09:57:45;5.30;99.90
32334;DHT22;18810;53.040;8.850;2022-12-07T10:00:16;5.00;99.90
32334;DHT22;18810;53.040;8.850;2022-12-07T10:03:02;4.80;99.90
32334;DHT22;18810;53.040;8.850;2022-12-07T10:05:46;4.60;99.90
32334;DHT22;18810;53.040;8.850;2022-12-07T10:08:14;4.30;99.90
32334;DHT22;18810;53.040;8.850;2022-12-07T10:10:41;4.30;99.90
32334;DHT22;18810;53.040;8.850;2022-12-07T10:13:09;5.10;99.90
32334;DHT22;18810;53.040;8.850;2022-12-07T10:15:52;5.10;99.90
32334;DHT22;18810;53.040;8.850;2022-12-07T10:18:25;5.10;99.90
32334;DHT22;18810;53.040;8.850;2022-12-07T10:21:04;5.00;99.90
32334;DHT22;18810;53.040;8.850;2022-12-07T10:23:33;4.80;99.90
32334;DHT22;18810;53.040;8.850;2022-12-07T10:25:59;5.00;99.90
32334;DHT22;18810;53.040;8.850;2022-12-07T10:28:34;5.20;99.90
32334;DHT22;18810;53.040;8.850;2022-12-07T10:31:03;5.20;99.90
32334;DHT22;18810;53.040;8.850;2022-12-07T10:33:53;5.10;99.90
32334;DHT22;18810;53.040;8.850;2022-12-07T10:39:00;5.00;99.90
32334;DHT22;18810;53.040;8.850;2022-12-07T10:41:26;5.00;99.90
32334;DHT22;18810;53.040;8.850;2022-12-07T10:43:55;5.10;99.90
32334;DHT22;18810;53.040;8.850;2022-12-07T10:55:40;5.00;99.90
32334;DHT22;18810;53.040;8.850;2022-12-07T11:06:33;5.00;99.90
32334;DHT22;18810;53.040;8.850;2022-12-07T11:09:29;5.00;99.90
32334;DHT22;18810;53.040;8.850;2022-12-07T11:14:36;5.30;99.90
32334;DHT22;18810;53.040;8.850;2022-12-07T11:17:31;5.30;99.90
32334;DHT22;18810;53.040;8.850;2022-12-07T11:20:27;5.40;99.90
32334;DHT22;18810;53.040;8.850;2022-12-07T11:23:08;5.60;99.90
32334;DHT22;18810;53.040;8.850;2022-12-07T11:26:12;5.70;99.90
32334;DHT22;18810;53.040;8.850;2022-12-07T11:28:59;6.00;99.90
32334;DHT22;18810;53.040;8.850;2022-12-07T11:34:16;5.80;99.90
32334;DHT22;18810;53.040;8.850;2022-12-07T11:36:54;6.00;99.90
32334;DHT22;18810;53.040;8.850;2022-12-07T11:41:57;5.70;99.90
32334;DHT22;18810;53.040;8.850;2022-12-07T11:47:16;5.50;99.90
32334;DHT22;18810;53.040;8.850;2022-12-07T11:50:50;5.70;99.90
32334;DHT22;18810;53.040;8.850;2022-12-07T11:53:03;5.90;99.90
32334;DHT22;18810;53.040;8.850;2022-12-07T11:55:56;6.00;99.90
32334;DHT22;18810;53.040;8.850;2022-12-07T12:03:47;6.20;99.90
32334;DHT22;18810;53.040;8.850;2022-12-07T12:06:14;6.10;99.90
32334;DHT22;18810;53.040;8.850;2022-12-07T12:08:48;6.50;99.90
32334;DHT22;18810;53.040;8.850;2022-12-07T12:16:38;6.80;99.90
32334;DHT22;18810;53.040;8.850;2022-12-07T12:19:40;6.90;99.90
32334;DHT22;18810;53.040;8.850;2022-12-07T12:22:17;7.10;99.90
32334;DHT22;18810;53.040;8.850;2022-12-07T12:24:46;7.30;99.90
32334;DHT22;18810;53.040;8.850;2022-12-07T12:27:25;7.50;99.90
32334;DHT22;18810;53.040;8.850;2022-12-07T12:29:54;7.30;99.90
32334;DHT22;18810;53.040;8.850;2022-12-07T12:32:23;7.10;99.90
32334;DHT22;18810;53.040;8.850;2022-12-07T12:35:20;6.90;99.90
32334;DHT22;18810;53.040;8.850;2022-12-07T12:37:47;6.90;99.90
32334;DHT22;18810;53.040;8.850;2022-12-07T12:42:51;6.70;99.90
32334;DHT22;18810;53.040;8.850;2022-12-07T12:45:27;6.80;99.90
32334;DHT22;18810;53.040;8.850;2022-12-07T12:53:01;6.60;99.90
32334;DHT22;18810;53.040;8.850;2022-12-07T12:55:58;6.60;99.90
32334;DHT22;18810;53.040;8.850;2022-12-07T12:58:34;6.40;99.90
32334;DHT22;18810;53.040;8.850;2022-12-07T13:03:57;6.10;99.90
32334;DHT22;18810;53.040;8.850;2022-12-07T13:08:53;4.90;99.90
32334;DHT22;18810;53.040;8.850;2022-12-07T13:11:34;4.20;99.90
32334;DHT22;18810;53.040;8.850;2022-12-07T13:24:57;4.30;99.90
32334;DHT22;18810;53.040;8.850;2022-12-07T13:27:25;4.40;99.90
32334;DHT22;18810;53.040;8.850;2022-12-07T13:29:56;4.50;99.90
32334;DHT22;18810;53.040;8.850;2022-12-07T13:32:25;4.70;99.90
32334;DHT22;18810;53.040;8.850;2022-12-07T13:34:51;4.80;99.90
32334;DHT22;18810;53.040;8.850;2022-12-07T13:39:51;4.80;99.90
32334;DHT22;18810;53.040;8.850;2022-12-07T13:42:28;4.70;99.90
32334;DHT22;18810;53.040;8.850;2022-12-07T13:44:55;4.70;99.90
32334;DHT22;18810;53.040;8.850;2022-12-07T13:50:28;4.70;99.90
32334;DHT22;18810;53.040;8.850;2022-12-07T13:53:01;4.60;99.90
32334;DHT22;18810;53.040;8.850;2022-12-07T13:55:28;4.70;99.90
32334;DHT22;18810;53.040;8.850;2022-12-07T13:57:54;4.70;99.90
32334;DHT22;18810;53.040;8.850;2022-12-07T14:00:28;4.60;99.90
32334;DHT22;18810;53.040;8.850;2022-12-07T14:02:56;4.70;99.90
32334;DHT22;18810;53.040;8.850;2022-12-07T14:05:28;4.70;99.90
32334;DHT22;18810;53.040;8.850;2022-12-07T14:10:25;4.60;99.90
32334;DHT22;18810;53.040;8.850;2022-12-07T14:12:51;4.50;99.90
32334;DHT22;18810;53.040;8.850;2022-12-07T14:15:23;4.40;99.90
32334;DHT22;18810;53.040;8.850;2022-12-07T14:17:51;4.40;99.90
32334;DHT22;18810;53.040;8.850;2022-12-07T14:20:36;4.40;99.90
32334;DHT22;18810;53.040;8.850;2022-12-07T14:23:04;4.40;99.90
32334;DHT22;18810;53.040;8.850;2022-12-07T14:25:50;4.30;99.90
32334;DHT22;18810;53.040;8.850;2022-12-07T14:28:27;4.40;99.90
32334;DHT22;18810;53.040;8.850;2022-12-07T14:30:53;4.40;99.90
32334;DHT22;18810;53.040;8.850;2022-12-07T14:33:19;4.30;99.90
32334;DHT22;18810;53.040;8.850;2022-12-07T14:35:46;4.20;99.90
32334;DHT22;18810;53.040;8.850;2022-12-07T14:38:11;4.20;99.90
32334;DHT22;18810;53.040;8.850;2022-12-07T14:40:38;4.20;99.90
32334;DHT22;18810;53.040;8.850;2022-12-07T14:43:12;4.20;99.90
32334;DHT22;18810;53.040;8.850;2022-12-07T14:45:40;4.20;99.90
32334;DHT22;18810;53.040;8.850;2022-12-07T14:48:07;4.20;99.90
32334;DHT22;18810;53.040;8.850;2022-12-07T14:50:38;4.20;99.90
32334;DHT22;18810;53.040;8.850;2022-12-07T14:53:17;4.30;99.90
32334;DHT22;18810;53.040;8.850;2022-12-07T14:55:44;4.30;99.90
32334;DHT22;18810;53.040;8.850;2022-12-07T14:58:17;4.20;99.90
32334;DHT22;18810;53.040;8.850;2022-12-07T15:00:43;4.10;99.90
32334;DHT22;18810;53.040;8.850;2022-12-07T15:03:09;4.00;99.90
32334;DHT22;18810;53.040;8.850;2022-12-07T15:05:35;4.00;99.90
32334;DHT22;18810;53.040;8.850;2022-12-07T15:08:02;3.90;99.90
32334;DHT22;18810;53.040;8.850;2022-12-07T15:10:31;4.00;99.90
32334;DHT22;18810;53.040;8.850;2022-12-07T15:12:59;3.90;99.90
32334;DHT22;18810;53.040;8.850;2022-12-07T15:15:43;4.00;99.90
32334;DHT22;18810;53.040;8.850;2022-12-07T15:18:08;3.90;99.90
32334;DHT22;18810;53.040;8.850;2022-12-07T15:20:34;3.90;99.90
32334;DHT22;18810;53.040;8.850;2022-12-07T15:23:00;4.00;99.90
32334;DHT22;18810;53.040;8.850;2022-12-07T15:25:25;3.80;99.90
32334;DHT22;18810;53.040;8.850;2022-12-07T15:27:54;3.80;99.90
32334;DHT22;18810;53.040;8.850;2022-12-07T15:30:20;3.70;99.90
32334;DHT22;18810;53.040;8.850;2022-12-07T15:32:49;3.60;99.90
32334;DHT22;18810;53.040;8.850;2022-12-07T15:35:15;3.60;99.90
32334;DHT22;18810;53.040;8.850;2022-12-07T15:37:41;3.50;99.90
32334;DHT22;18810;53.040;8.850;2022-12-07T15:40:07;3.50;99.90
32334;DHT22;18810;53.040;8.850;2022-12-07T15:42:33;3.50;99.90
32334;DHT22;18810;53.040;8.850;2022-12-07T15:45:00;3.50;99.90
32334;DHT22;18810;53.040;8.850;2022-12-07T15:47:37;3.40;99.90
32334;DHT22;18810;53.040;8.850;2022-12-07T15:50:08;3.40;99.90
32334;DHT22;18810;53.040;8.850;2022-12-07T15:52:36;3.30;99.90
32334;DHT22;18810;53.040;8.850;2022-12-07T15:55:03;3.20;99.90
32334;DHT22;18810;53.040;8.850;2022-12-07T15:57:30;3.20;99.90
32334;DHT22;18810;53.040;8.850;2022-12-07T15:59:55;3.20;99.90
32334;DHT22;18810;53.040;8.850;2022-12-07T16:02:21;3.20;99.90
32334;DHT22;18810;53.040;8.850;2022-12-07T16:04:48;3.10;99.90
32334;DHT22;18810;53.040;8.850;2022-12-07T16:07:13;3.10;99.90
32334;DHT22;18810;53.040;8.850;2022-12-07T16:09:41;3.10;99.90
32334;DHT22;18810;53.040;8.850;2022-12-07T16:12:07;3.10;99.90
32334;DHT22;18810;53.040;8.850;2022-12-07T16:14:33;3.00;99.90
32334;DHT22;18810;53.040;8.850;2022-12-07T16:16:59;3.00;99.90
32334;DHT22;18810;53.040;8.850;2022-12-07T16:19:25;3.00;99.90
32334;DHT22;18810;53.040;8.850;2022-12-07T16:21:51;3.00;99.90
32334;DHT22;18810;53.040;8.850;2022-12-07T16:24:17;3.00;99.90
32334;DHT22;18810;53.040;8.850;2022-12-07T16:26:43;2.90;99.90
32334;DHT22;18810;53.040;8.850;2022-12-07T16:29:13;2.90;99.90
32334;DHT22;18810;53.040;8.850;2022-12-07T16:31:39;2.80;99.90
32334;DHT22;18810;53.040;8.850;2022-12-07T16:34:05;2.80;99.90
32334;DHT22;18810;53.040;8.850;2022-12-07T16:36:31;2.80;99.90
32334;DHT22;18810;53.040;8.850;2022-12-07T16:38:58;2.90;99.90
32334;DHT22;18810;53.040;8.850;2022-12-07T16:41:24;3.00;99.90
32334;DHT22;18810;53.040;8.850;2022-12-07T16:43:50;3.10;99.90
32334;DHT22;18810;53.040;8.850;2022-12-07T16:46:16;3.10;99.90
32334;DHT22;18810;53.040;8.850;2022-12-07T16:48:42;3.10;99.90
32334;DHT22;18810;53.040;8.850;2022-12-07T16:51:09;3.10;99.90
32334;DHT22;18810;53.040;8.850;2022-12-07T16:53:36;3.20;99.90
32334;DHT22;18810;53.040;8.850;2022-12-07T16:56:02;3.30;99.90
32334;DHT22;18810;53.040;8.850;2022-12-07T16:58:28;3.30;99.90
32334;DHT22;18810;53.040;8.850;2022-12-07T17:00:54;3.30;99.90
32334;DHT22;18810;53.040;8.850;2022-12-07T17:03:20;3.30;99.90
32334;DHT22;18810;53.040;8.850;2022-12-07T17:05:46;3.10;99.90
32334;DHT22;18810;53.040;8.850;2022-12-07T17:08:13;2.90;99.90
32334;DHT22;18810;53.040;8.850;2022-12-07T17:10:42;2.70;99.90
32334;DHT22;18810;53.040;8.850;2022-12-07T17:13:08;2.60;99.90
32334;DHT22;18810;53.040;8.850;2022-12-07T17:15:58;2.60;99.90
32334;DHT22;18810;53.040;8.850;2022-12-07T17:18:24;2.40;99.90
32334;DHT22;18810;53.040;8.850;2022-12-07T17:20:51;2.40;99.90
32334;DHT22;18810;53.040;8.850;2022-12-07T17:23:17;2.50;99.90
32334;DHT22;18810;53.040;8.850;2022-12-07T17:25:43;2.60;99.90
32334;DHT22;18810;53.040;8.850;2022-12-07T17:28:08;2.60;99.90
32334;DHT22;18810;53.040;8.850;2022-12-07T17:30:34;2.70;99.90
32334;DHT22;18810;53.040;8.850;2022-12-07T17:33:00;2.70;99.90
32334;DHT22;18810;53.040;8.850;2022-12-07T17:35:27;2.70;99.90
32334;DHT22;18810;53.040;8.850;2022-12-07T17:37:52;2.70;99.90
32334;DHT22;18810;53.040;8.850;2022-12-07T17:40:18;2.70;99.90
32334;DHT22;18810;53.040;8.850;2022-12-07T17:42:44;2.80;99.90
32334;DHT22;18810;53.040;8.850;2022-12-07T17:45:13;2.70;99.90
32334;DHT22;18810;53.040;8.850;2022-12-07T17:47:39;2.70;99.90
32334;DHT22;18810;53.040;8.850;2022-12-07T17:50:06;2.70;99.90
32334;DHT22;18810;53.040;8.850;2022-12-07T17:52:32;2.80;99.90
32334;DHT22;18810;53.040;8.850;2022-12-07T17:55:17;2.80;99.90
32334;DHT22;18810;53.040;8.850;2022-12-07T17:57:45;2.80;99.90
32334;DHT22;18810;53.040;8.850;2022-12-07T18:00:11;2.80;99.90
32334;DHT22;18810;53.040;8.850;2022-12-07T18:02:38;2.70;99.90